Time;durP1;ratioP1;P1;durP2;ratioP2;P2;SDS_P1;SDS_P2;PMS_P1;PMS_P2;Temp;Humidity;BMP_temperature;BMP_pressure;BME280_temperature;BME280_humidity;BME280_pressure;Samples;Min_cycle;Max_cycle;Signal;HPM_P1;HPM_P2
2022/06/06 00:04:57;;;;;;;4.47;2.40;;;;;;;18.73;49.13;100771.50;5201896;56;1139006;-70
2022/06/06 00:10:05;;;;;;;3.47;3.00;;;;;;;18.70;49.21;100753.91;5195209;56;1139035;-70
2022/06/06 00:15:14;;;;;;;3.12;2.83;;;;;;;18.71;49.35;100746.71;5195233;56;1138921;-70
2022/06/06 00:20:19;;;;;;;2.87;2.67;;;;;;;18.61;49.45;100738.34;5199792;56;1139224;-70
2022/06/06 00:25:26;;;;;;;7.30;3.22;;;;;;;18.52;49.67;100733.92;5214944;55;1138925;-69
2022/06/06 00:30:31;;;;;;;5.85;3.50;;;;;;;18.47;49.83;100738.12;5214686;56;1139127;-70
2022/06/06 00:35:37;;;;;;;6.47;3.45;;;;;;;18.39;49.94;100726.03;5228356;55;1139232;-71
2022/06/06 00:40:46;;;;;;;7.52;2.96;;;;;;;18.33;50.05;100723.53;5228638;55;1139152;-69
2022/06/06 00:45:57;;;;;;;5.72;3.70;;;;;;;18.28;50.19;100720.00;5269924;56;1138955;-70
2022/06/06 00:51:15;;;;;;;3.72;3.20;;;;;;;18.17;50.19;100722.15;5284424;55;1139013;-70
2022/06/06 00:56:38;;;;;;;4.57;3.47;;;;;;;18.11;50.47;100710.24;5284261;55;1138919;-70
2022/06/06 01:01:44;;;;;;;4.17;3.57;;;;;;;18.05;50.64;100708.20;5239650;55;1138996;-69
2022/06/06 01:06:50;;;;;;;4.57;3.47;;;;;;;18.01;50.86;100705.54;5219761;55;1138963;-70
2022/06/06 01:12:03;;;;;;;4.77;3.67;;;;;;;17.99;51.11;100704.02;5219777;55;1139057;-70
2022/06/06 01:17:35;;;;;;;6.10;3.73;;;;;;;17.97;50.93;100697.98;5219856;56;1138998;-70
2022/06/06 01:23:32;;;;;;;3.83;3.52;;;;;;;17.97;51.18;100697.98;5227753;55;1139015;-70
2022/06/06 01:29:06;;;;;;;7.87;3.83;;;;;;;17.80;51.47;100705.95;5243047;55;1136935;-70
2022/06/06 01:34:17;;;;;;;7.73;4.50;;;;;;;17.60;51.70;100691.11;5241841;55;1137059;-69
2022/06/06 01:39:26;;;;;;;5.67;3.73;;;;;;;17.52;52.25;100698.61;5242989;55;1134938;-70
2022/06/06 01:44:48;;;;;;;7.10;4.20;;;;;;;17.43;52.57;100686.67;5274835;55;1138791;-70
2022/06/06 01:49:55;;;;;;;4.50;4.07;;;;;;;17.36;52.84;100681.64;5304081;55;1139014;-70
2022/06/06 01:55:02;;;;;;;5.63;4.17;;;;;;;17.34;53.02;100675.61;5290972;55;1139031;-70
2022/06/06 02:00:10;;;;;;;5.57;3.53;;;;;;;17.29;53.39;100666.72;5234845;56;1138934;-70
2022/06/06 02:05:17;;;;;;;6.37;4.30;;;;;;;17.25;53.65;100669.89;5271342;56;1138956;-70
2022/06/06 02:10:24;;;;;;;9.20;4.87;;;;;;;17.20;54.07;100670.35;5283227;56;1139193;-69
2022/06/06 02:15:30;;;;;;;7.90;3.60;;;;;;;17.08;54.41;100664.94;5277669;56;1139074;-70
2022/06/06 02:20:37;;;;;;;5.97;3.87;;;;;;;17.00;54.48;100659.03;5265983;56;1139191;-70
2022/06/06 02:25:43;;;;;;;9.97;5.37;;;;;;;17.00;54.71;100660.86;5195518;57;1139135;-70
2022/06/06 02:30:49;;;;;;;7.57;5.03;;;;;;;16.97;54.72;100658.00;5161002;57;1139004;-69
2022/06/06 02:35:55;;;;;;;6.90;3.83;;;;;;;16.93;54.91;100656.66;5195510;57;1139099;-70
2022/06/06 02:41:11;;;;;;;5.93;4.30;;;;;;;16.88;55.29;100653.11;5195589;57;1139170;-70
2022/06/06 02:46:10;;;;;;;4.93;4.30;;;;;;;16.76;55.88;100642.84;5264123;56;1139156;-70
2022/06/06 02:51:16;;;;;;;5.30;4.06;;;;;;;16.70;55.94;100650.97;5283380;56;1139050;-70
2022/06/06 02:56:22;;;;;;;6.40;4.17;;;;;;;16.62;57.14;100653.55;5262475;55;1138997;-70
2022/06/06 03:01:29;;;;;;;10.65;5.12;;;;;;;16.52;57.63;100657.63;5239887;55;1138987;-70
2022/06/06 03:07:12;;;;;;;7.13;4.20;;;;;;;16.48;57.61;100654.11;5233078;55;1141030;-71
2022/06/06 03:12:30;;;;;;;4.90;3.83;;;;;;;16.41;57.55;100667.21;5260969;55;1139013;-70
2022/06/06 03:23:32;;;;;;;5.44;4.44;;;;;;;16.41;58.05;100677.89;5224154;55;1136863;-71
2022/06/06 03:28:54;;;;;;;9.13;4.47;;;;;;;16.44;58.04;100667.41;5219335;56;1136872;-71
2022/06/06 03:34:16;;;;;;;7.10;4.57;;;;;;;16.41;58.35;100664.55;5223349;55;1137144;-71
2022/06/06 03:39:59;;;;;;;5.30;4.63;;;;;;;16.39;58.68;100661.19;5049598;58;1136967;-70
2022/06/06 03:45:20;;;;;;;7.10;4.63;;;;;;;16.31;59.68;100669.12;5111122;58;1139103;-70
2022/06/06 03:50:46;;;;;;;5.60;5.07;;;;;;;16.29;59.97;100676.94;5106005;58;1138979;-70
2022/06/06 03:56:25;;;;;;;5.10;4.33;;;;;;;16.26;60.69;100690.09;4998012;58;1139127;-70
2022/06/06 04:01:34;;;;;;;5.63;4.60;;;;;;;16.23;60.83;100692.21;4988295;58;1139183;-70
2022/06/06 04:06:40;;;;;;;7.37;4.63;;;;;;;16.18;61.21;100686.86;4869574;60;1139028;-71
2022/06/06 04:11:51;;;;;;;6.80;5.10;;;;;;;16.19;62.44;100683.17;5079395;58;1138992;-70
2022/06/06 04:17:33;;;;;;;8.03;4.53;;;;;;;16.25;62.25;100688.41;5062049;58;1139087;-71
2022/06/06 04:23:16;;;;;;;5.60;4.87;;;;;;;16.29;63.14;100675.11;4995082;59;1139053;-70
2022/06/06 04:28:33;;;;;;;;;;;;;;;16.33;62.62;100665.81;5024867;57;1139143;-72
2022/06/06 04:34:07;;;;;;;6.10;5.40;;;;;;;16.40;63.62;100675.38;5068637;57;974249;-70
2022/06/06 04:39:17;;;;;;;9.40;5.43;;;;;;;16.41;63.46;100681.89;4984247;59;1134870;-70
2022/06/06 04:44:42;;;;;;;8.93;5.93;;;;;;;16.46;64.31;100684.12;5104163;57;1136873;-70
2022/06/06 04:49:49;;;;;;;8.60;6.37;;;;;;;16.48;64.22;100676.30;5159167;56;1137183;-71
2022/06/06 04:54:56;;;;;;;6.87;6.03;;;;;;;16.54;64.92;100668.16;5141993;57;1136910;-70
2022/06/06 05:00:04;;;;;;;8.10;6.70;;;;;;;16.60;64.90;100665.38;5164351;56;1134832;-70
2022/06/06 05:05:11;;;;;;;8.20;5.90;;;;;;;16.68;66.39;100663.63;5156467;57;21121;-70
2022/06/06 05:10:34;;;;;;;7.77;6.60;;;;;;;16.77;66.67;100678.75;5144211;56;1134815;-72
2022/06/06 05:16:19;;;;;;;7.23;6.40;;;;;;;16.87;66.50;100673.30;5157765;56;1139194;-72
2022/06/06 05:21:47;;;;;;;8.23;6.30;;;;;;;17.02;66.47;100675.74;5164126;56;1138885;-72
2022/06/06 05:27:11;;;;;;;7.20;6.50;;;;;;;17.21;66.50;100660.84;5129373;56;1138939;-73
2022/06/06 05:32:49;;;;;;;10.00;7.83;;;;;;;17.40;67.17;100657.61;5104458;57;1139246;-72
2022/06/06 05:38:14;;;;;;;7.10;6.40;;;;;;;17.58;67.50;100654.32;5131684;57;1141061;-73
2022/06/06 05:43:44;;;;;;;10.60;7.17;;;;;;;17.82;67.81;100641.08;5136516;56;1138997;-72
2022/06/06 05:49:28;;;;;;;16.83;8.03;;;;;;;18.06;67.46;100635.44;5130653;57;1139193;-72
2022/06/06 05:55:00;;;;;;;16.20;7.07;;;;;;;18.31;67.11;100630.48;5131646;57;1139302;-73
2022/06/06 06:00:16;;;;;;;10.13;6.90;;;;;;;18.55;67.09;100630.47;5166988;56;1139279;-73
2022/06/06 06:05:46;;;;;;;7.70;7.00;;;;;;;18.84;66.51;100629.13;5240934;56;1136928;-72
2022/06/06 06:10:59;;;;;;;9.50;6.93;;;;;;;19.03;66.29;100628.77;5250768;56;1139029;-73
2022/06/06 06:16:06;;;;;;;7.83;6.93;;;;;;;19.25;65.64;100629.87;5243984;56;1139169;-72
2022/06/06 06:21:33;;;;;;;7.87;6.65;;;;;;;19.45;65.37;100618.24;5223437;56;1138941;-75
2022/06/06 06:26:40;;;;;;;8.65;7.08;;;;;;;19.64;64.58;100621.89;5163853;57;1139099;-73
2022/06/06 06:32:08;;;;;;;13.50;7.25;;;;;;;19.70;64.53;100618.52;5163968;57;1138987;-72
2022/06/06 06:37:27;;;;;;;11.60;7.40;;;;;;;19.84;64.59;100611.05;5163875;57;1141117;-73
2022/06/06 06:43:14;;;;;;;14.73;9.08;;;;;;;20.02;64.90;100603.53;5171631;56;1141305;-73
2022/06/06 06:48:33;;;;;;;14.13;8.08;;;;;;;20.15;64.31;100601.62;5250613;56;1141026;-73
2022/06/06 06:54:04;;;;;;;15.38;7.03;;;;;;;20.31;64.36;100602.01;5250469;56;1141064;-73
2022/06/06 06:59:50;;;;;;;11.15;8.08;;;;;;;20.46;63.64;100600.23;5215279;56;1139143;-73
2022/06/06 07:11:15;;;;;;;14.47;8.80;;;;;;;20.82;62.52;100590.98;5079880;58;1138983;-73
2022/06/06 07:16:28;;;;;;;10.85;7.87;;;;;;;21.06;62.66;100596.63;5155864;57;1141109;-73
2022/06/06 07:21:36;;;;;;;8.33;6.17;;;;;;;21.47;62.58;100585.39;5181498;56;1141041;-73
2022/06/06 07:26:44;;;;;;;7.53;6.83;;;;;;;21.69;61.43;100597.34;5242282;56;1138906;-73
2022/06/06 07:32:11;;;;;;;18.60;7.08;;;;;;;21.91;59.61;100583.42;5242336;56;1138942;-73
2022/06/06 07:38:01;;;;;;;10.68;7.30;;;;;;;22.07;59.59;100587.25;5204880;56;1141064;-73
2022/06/06 07:43:20;;;;;;;15.30;7.05;;;;;;;22.29;56.57;100585.91;5182587;56;1141044;-73
2022/06/06 07:48:42;;;;;;;11.55;5.95;;;;;;;22.51;57.21;100579.45;5246425;56;1141051;-73
2022/06/06 07:54:08;;;;;;;11.07;6.27;;;;;;;22.55;55.26;100578.05;5246574;56;1141048;-73
2022/06/06 07:59:38;;;;;;;6.05;5.42;;;;;;;22.57;54.25;100584.59;5192933;56;1139064;-73
2022/06/06 08:04:54;;;;;;;7.83;5.92;;;;;;;22.51;53.68;100580.80;5161750;56;1136915;-72
2022/06/06 08:10:25;;;;;;;8.23;7.40;;;;;;;22.54;54.81;100584.97;5162844;57;1136996;-73
2022/06/06 08:15:35;;;;;;;7.55;6.22;;;;;;;22.59;55.88;100583.38;5164404;57;1136887;-73
2022/06/06 08:20:57;;;;;;;8.35;6.78;;;;;;;22.61;55.13;100585.87;5182965;56;1134787;-73
2022/06/06 08:26:05;;;;;;;6.83;6.17;;;;;;;22.60;55.55;100591.78;5251525;56;1138973;-73
2022/06/06 08:31:11;;;;;;;13.20;7.73;;;;;;;22.67;54.84;100583.72;5250160;56;1138962;-73
2022/06/06 08:36:45;;;;;;;7.45;6.08;;;;;;;22.71;54.98;100579.10;5164134;57;1141172;-73
2022/06/06 08:42:13;;;;;;;7.33;6.62;;;;;;;22.81;55.50;100566.64;5164320;57;1138969;-73
2022/06/06 08:47:47;;;;;;;9.85;6.08;;;;;;;23.00;54.21;100560.55;5250703;56;1138943;-73
2022/06/06 08:53:38;;;;;;;10.10;6.08;;;;;;;23.21;53.30;100557.45;5250814;56;1138984;-71
2022/06/06 08:58:54;;;;;;;6.17;5.60;;;;;;;23.43;52.78;100539.57;5249564;56;1141037;-70
2022/06/06 09:04:22;;;;;;;10.70;6.78;;;;;;;23.60;52.38;100527.92;5197053;56;1139256;-71
2022/06/06 09:09:54;;;;;;;6.25;5.65;;;;;;;23.81;50.88;100524.25;5160321;57;1139566;-70
2022/06/06 09:15:36;;;;;;;6.12;5.47;;;;;;;24.07;51.42;100514.81;5161739;57;1136958;-71
2022/06/06 09:21:04;;;;;;;8.78;5.17;;;;;;;24.15;48.90;100520.00;5181611;56;1136867;-71
2022/06/06 09:26:23;;;;;;;6.47;5.03;;;;;;;24.13;49.00;100519.92;5249877;56;1138971;-71
2022/06/06 09:31:57;;;;;;;8.75;5.00;;;;;;;24.13;49.31;100528.03;5178330;56;1138995;-71
2022/06/06 09:37:19;;;;;;;9.98;5.33;;;;;;;24.14;48.16;100518.33;5162829;57;1139172;-70
2022/06/06 09:42:58;;;;;;;6.33;4.13;;;;;;;24.15;49.01;100532.68;5162881;56;1139052;-70
2022/06/06 09:48:20;;;;;;;5.70;4.90;;;;;;;24.12;48.63;100523.14;5249638;56;1139009;-71
2022/06/06 09:59:01;;;;;;;5.65;5.10;;;;;;;24.18;49.04;100523.64;5249624;56;1138978;-70
2022/06/06 09:59:33;;;;;;;6.50;4.60;;;;;;;24.22;49.55;100520.02;5235965;56;1138971;-71
2022/06/06 10:05:04;;;;;;;7.80;5.85;;;;;;;24.32;50.15;100518.27;5173352;56;1137284;-71
2022/06/06 10:10:36;;;;;;;8.48;4.83;;;;;;;24.38;49.62;100518.27;5151698;57;1137135;-70
2022/06/06 10:16:04;;;;;;;7.07;5.60;;;;;;;24.46;50.05;100523.97;5151943;57;1137086;-74
2022/06/06 10:21:45;;;;;;;5.53;4.87;;;;;;;24.50;50.09;100525.23;5151280;57;1135211;-73
2022/06/06 10:27:16;;;;;;;5.83;5.27;;;;;;;24.55;49.99;100529.49;5175124;56;1139029;-73
2022/06/06 10:32:59;;;;;;;6.40;5.80;;;;;;;24.58;50.29;100529.08;5151286;57;1139061;-71
2022/06/06 10:38:15;;;;;;;7.03;5.43;;;;;;;24.62;50.59;100532.17;5151146;57;1138985;-71
2022/06/06 10:43:43;;;;;;;7.53;6.72;;;;;;;24.64;51.04;100523.33;5173049;56;1138969;-70
2022/06/06 10:49:05;;;;;;;9.05;6.45;;;;;;;24.65;52.05;100531.23;5222576;56;1138955;-70
2022/06/06 10:54:36;;;;;;;4.97;4.57;;;;;;;24.58;53.12;100535.84;5209415;56;1139001;-71
2022/06/06 11:00:24;;;;;;;7.25;6.55;;;;;;;24.59;53.54;100532.62;5199927;56;1139006;-70
2022/06/06 11:05:59;;;;;;;9.95;7.15;;;;;;;24.48;54.52;100535.42;5110459;57;1136974;-70
2022/06/06 11:11:42;;;;;;;7.87;7.08;;;;;;;24.33;55.62;100543.74;5165114;56;1136934;-70
2022/06/06 11:17:27;;;;;;;12.55;8.63;;;;;;;24.17;56.10;100544.95;5214847;56;1139185;-70
2022/06/06 11:22:56;;;;;;;11.65;8.83;;;;;;;24.00;56.20;100551.78;5209163;56;1141104;-70
2022/06/06 11:28:13;;;;;;;10.45;8.60;;;;;;;23.91;58.45;100551.68;5214693;56;1141072;-70
2022/06/06 11:33:56;;;;;;;10.53;8.73;;;;;;;23.88;60.81;100568.29;5213996;56;1141096;-71
2022/06/06 11:39:56;;;;;;;9.35;7.67;;;;;;;23.52;62.56;100587.52;5214753;56;1141075;-73
2022/06/06 11:45:18;;;;;;;13.13;9.00;;;;;;;22.87;65.81;100601.44;5214616;56;1136937;-72
2022/06/06 11:50:50;;;;;;;11.90;8.07;;;;;;;22.21;67.56;100604.88;5214942;56;1138952;-72
2022/06/06 11:56:31;;;;;;;12.80;9.63;;;;;;;21.75;69.18;100605.20;5167341;56;1139031;-72
2022/06/06 12:01:56;;;;;;;12.00;8.55;;;;;;;21.38;72.42;100625.88;5138876;57;1238095;-72
2022/06/06 12:07:38;;;;;;;11.60;10.40;;;;;;;20.93;74.35;100634.07;5160212;56;1141029;-72
2022/06/06 12:13:26;;;;;;;10.60;9.50;;;;;;;20.66;76.49;100631.45;5158274;56;1143227;-74
2022/06/06 12:18:54;;;;;;;12.13;10.28;;;;;;;20.43;77.32;100631.48;5120149;56;1141240;-72
2022/06/06 12:24:32;;;;;;;12.78;10.93;;;;;;;20.16;80.79;100636.87;5159918;56;1143129;-73
2022/06/06 12:29:59;;;;;;;12.58;10.10;;;;;;;19.78;82.67;100627.85;5160248;56;1143072;-72
2022/06/06 12:35:24;;;;;;;12.82;10.98;;;;;;;19.78;82.67;100627.85;5112568;56;1141041;-73
2022/06/06 12:40:40;;;;;;;12.52;10.54;;;;;;;19.70;82.72;100636.46;5093517;57;1141080;-73
2022/06/06 12:46:25;;;;;;;11.95;10.75;;;;;;;19.66;82.78;100642.17;5136908;57;1141088;-73
2022/06/06 12:52:00;;;;;;;12.75;10.30;;;;;;;19.72;83.55;100637.09;5211822;56;1141135;-72
2022/06/06 12:57:03;;;;;;;11.83;10.72;;;;;;;19.68;83.49;100636.63;5214970;56;1143008;-73
2022/06/06 13:02:37;;;;;;;13.48;11.88;;;;;;;19.68;83.57;100638.48;5155899;56;1143289;-73
2022/06/06 13:08:05;;;;;;;11.70;10.45;;;;;;;19.64;84.07;100637.48;4887531;59;1143625;-72
2022/06/06 13:13:40;;;;;;;12.50;11.18;;;;;;;19.61;84.60;100634.30;5104765;57;1143346;-73
2022/06/06 13:19:10;;;;;;;12.43;11.22;;;;;;;19.54;85.25;100630.16;5061627;58;1143453;-73
2022/06/06 13:24:47;;;;;;;12.15;10.80;;;;;;;19.60;86.35;100633.47;4976855;58;1143421;-72
2022/06/06 13:29:54;;;;;;;13.00;11.15;;;;;;;19.57;86.83;100632.47;5228472;56;1143341;-73
2022/06/06 13:35:20;;;;;;;17.70;11.10;;;;;;;19.58;86.68;100628.77;5228603;56;1143417;-72
2022/06/06 13:40:55;;;;;;;13.68;12.07;;;;;;;19.61;86.99;100626.25;5228314;56;1141058;-73
2022/06/06 13:46:26;;;;;;;18.40;12.00;;;;;;;19.65;87.27;100633.79;5165055;56;1141319;-73
2022/06/06 13:51:44;;;;;;;12.43;11.03;;;;;;;19.58;87.46;100639.51;5149322;56;1141083;-73
2022/06/06 13:57:00;;;;;;;16.42;11.18;;;;;;;19.49;88.70;100639.70;5122498;56;1139007;-72
2022/06/06 14:02:45;;;;;;;13.08;11.68;;;;;;;19.38;88.76;100636.05;5078624;57;1143204;-72
2022/06/06 14:08:20;;;;;;;15.98;12.13;;;;;;;19.20;89.40;100637.11;5092119;57;1143155;-73
2022/06/06 14:13:48;;;;;;;15.84;14.12;;;;;;;19.09;89.52;100642.84;5208542;56;1143388;-72
2022/06/06 14:18:58;;;;;;;14.75;13.22;;;;;;;18.98;89.45;100634.64;5242304;56;1143174;-73
2022/06/06 14:24:17;;;;;;;16.40;13.53;;;;;;;18.89;89.69;100636.17;5169543;56;1143191;-73
2022/06/06 14:29:38;;;;;;;15.00;13.50;;;;;;;18.90;90.44;100640.03;5164863;56;1143408;-73
2022/06/06 14:34:51;;;;;;;17.48;13.48;;;;;;;18.92;91.66;100623.28;5160291;57;1143141;-73
2022/06/06 14:39:59;;;;;;;;;;;;;;;18.93;92.10;100616.91;5176916;56;1143140;-72
2022/06/06 14:45:14;;;;;;;16.40;14.80;;;;;;;19.04;93.04;100610.34;5211174;56;976312;-73
2022/06/06 14:55:51;;;;;;;19.55;15.68;;;;;;;19.47;93.53;100621.59;5239322;56;1141035;-72
2022/06/06 15:01:22;;;;;;;19.02;16.17;;;;;;;19.38;91.66;100619.97;5251812;56;1140996;-72
2022/06/06 15:06:35;;;;;;;18.23;16.35;;;;;;;19.25;91.26;100612.44;5251538;56;1141156;-72
2022/06/06 15:11:45;;;;;;;18.30;15.70;;;;;;;19.18;91.37;100602.93;5198945;56;1141073;-72
2022/06/06 15:16:51;;;;;;;18.20;16.20;;;;;;;19.23;92.17;100597.89;5241985;56;1141076;-73
2022/06/06 15:21:58;;;;;;;16.75;15.10;;;;;;;19.22;91.64;100591.36;5225406;56;1141083;-72
2022/06/06 15:27:27;;;;;;;19.20;17.32;;;;;;;19.34;92.21;100593.98;5251702;56;1141147;-73
2022/06/06 15:33:08;;;;;;;17.20;15.40;;;;;;;19.60;94.35;100582.48;5196905;56;1143320;-73
2022/06/06 15:39:05;;;;;;;19.00;17.15;;;;;;;19.79;91.99;100583.06;5206277;56;1143352;-73
2022/06/06 15:44:50;;;;;;;19.45;17.45;;;;;;;19.75;91.08;100578.55;5199508;56;1143132;-72
2022/06/06 15:50:07;;;;;;;17.40;15.70;;;;;;;19.66;90.03;100571.56;5159585;56;1143055;-73
2022/06/06 15:55:38;;;;;;;19.00;16.54;;;;;;;19.67;90.49;100565.19;5194169;56;1143050;-73
2022/06/06 16:00:48;;;;;;;18.73;16.82;;;;;;;19.62;90.11;100559.00;5251213;56;1143142;-73
2022/06/06 16:05:55;;;;;;;17.42;15.63;;;;;;;19.64;90.57;100561.52;5218836;56;1141265;-73
2022/06/06 16:11:14;;;;;;;17.52;15.53;;;;;;;19.64;90.37;100557.48;5193665;56;1140909;-73
2022/06/06 16:16:48;;;;;;;13.53;12.23;;;;;;;19.66;90.71;100556.81;5205343;56;1141062;-73
2022/06/06 16:22:07;;;;;;;15.72;14.13;;;;;;;19.74;90.51;100555.41;5172176;56;1141027;-73
2022/06/06 16:27:21;;;;;;;15.75;14.15;;;;;;;19.64;90.41;100559.67;5186791;56;1141087;-72
2022/06/06 16:32:39;;;;;;;13.88;12.45;;;;;;;19.56;90.60;100561.03;5177270;56;1138974;-73
2022/06/06 16:38:10;;;;;;;20.33;14.50;;;;;;;19.55;91.52;100571.47;5184232;56;1143291;-75
2022/06/06 16:48:57;;;;;;;15.70;14.15;;;;;;;19.53;91.29;100549.34;5238054;56;1143206;-74
2022/06/06 16:54:25;;;;;;;17.92;14.85;;;;;;;19.59;91.43;100550.46;5165016;56;1143400;-73
2022/06/06 17:00:04;;;;;;;15.72;14.18;;;;;;;19.64;91.17;100553.47;5196894;56;1143156;-74
2022/06/06 17:11:18;;;;;;;21.12;18.02;;;;;;;19.83;90.41;100546.81;5216484;56;1143151;-74
2022/06/06 17:16:39;;;;;;;17.75;15.53;;;;;;;19.90;90.64;100546.41;5124157;57;1141319;-74
2022/06/06 17:22:04;;;;;;;15.20;13.62;;;;;;;20.05;90.00;100545.95;5087167;57;1141002;-74
2022/06/06 17:27:52;;;;;;;20.40;16.23;;;;;;;20.15;89.62;100539.02;5132177;57;1141188;-74
2022/06/06 17:33:02;;;;;;;15.83;14.37;;;;;;;20.19;88.83;100545.17;5132313;56;1143149;-74
2022/06/06 17:38:39;;;;;;;16.87;15.18;;;;;;;20.21;88.52;100546.34;5218463;56;1143473;-74
2022/06/06 17:43:58;;;;;;;17.67;15.80;;;;;;;20.16;88.11;100553.61;5218507;56;1143115;-74
2022/06/06 17:49:31;;;;;;;16.90;15.30;;;;;;;20.11;87.96;100550.62;5219100;56;1143089;-73
2022/06/06 17:55:02;;;;;;;18.60;16.67;;;;;;;20.06;88.05;100544.95;5253881;55;1143233;-74
2022/06/06 18:00:23;;;;;;;16.97;15.43;;;;;;;20.10;88.09;100552.14;5091190;57;1143328;-74
2022/06/06 18:05:51;;;;;;;18.30;16.48;;;;;;;20.13;87.72;100549.94;5147216;56;1143167;-74
2022/06/06 18:11:25;;;;;;;21.40;19.00;;;;;;;20.11;87.28;100541.23;5210594;55;1143136;-74
2022/06/06 18:16:50;;;;;;;22.37;18.50;;;;;;;20.11;87.43;100541.23;5191880;56;1141046;-74
2022/06/06 18:21:52;;;;;;;19.23;17.30;;;;;;;20.16;87.63;100532.13;5162103;56;1141596;-74
2022/06/06 18:27:06;;;;;;;28.10;24.25;;;;;;;20.16;87.26;100528.10;5165671;56;1141076;-74
2022/06/06 18:32:28;;;;;;;38.10;24.77;;;;;;;20.13;87.16;100527.12;5202503;56;1141055;-74
2022/06/06 18:38:03;;;;;;;19.65;17.57;;;;;;;20.08;87.44;100521.95;5182072;56;1141128;-74
2022/06/06 18:43:38;;;;;;;19.73;17.00;;;;;;;19.96;87.28;100526.91;5208150;56;1143489;-74
2022/06/06 18:49:01;;;;;;;20.52;18.32;;;;;;;19.95;87.67;100524.73;5169414;56;1143370;-74
2022/06/06 18:54:23;;;;;;;23.18;17.77;;;;;;;19.93;87.92;100528.10;5226722;56;1143073;-75
2022/06/06 18:59:45;;;;;;;19.90;17.80;;;;;;;19.91;87.85;100519.89;5154136;56;1143167;-74
2022/06/06 19:04:57;;;;;;;18.23;16.52;;;;;;;19.74;87.67;100520.52;5178405;56;1143191;-73
2022/06/06 19:10:16;;;;;;;24.65;18.65;;;;;;;19.66;88.16;100514.72;5142705;57;1143156;-73
2022/06/06 19:15:32;;;;;;;19.50;17.50;;;;;;;19.63;88.76;100507.52;5147244;56;1143135;-74
2022/06/06 19:21:05;;;;;;;23.80;18.80;;;;;;;19.54;88.45;100508.09;5226999;56;1143093;-73
2022/06/06 19:26:28;;;;;;;97.40;36.58;;;;;;;19.55;88.87;100506.25;5193780;56;1143650;-73
2022/06/06 19:31:41;;;;;;;219.00;61.28;;;;;;;19.55;89.00;100494.17;5052140;57;1141096;-73
2022/06/06 19:37:22;;;;;;;90.05;34.38;;;;;;;19.56;89.00;100493.12;5050730;58;1143334;-73
2022/06/06 19:42:32;;;;;;;28.57;19.75;;;;;;;19.56;89.05;100507.89;4900751;59;1141381;-73
2022/06/06 19:47:42;;;;;;;39.70;25.75;;;;;;;19.54;89.00;100500.55;5101812;57;1141275;-73
2022/06/06 19:52:49;;;;;;;30.97;21.82;;;;;;;19.58;88.83;100511.23;5063164;57;1141281;-73
2022/06/06 19:57:55;;;;;;;24.47;20.62;;;;;;;19.63;88.80;100524.45;5064631;58;1141213;-73
2022/06/06 20:03:08;;;;;;;29.92;21.27;;;;;;;19.55;87.92;100529.05;4971756;59;1141560;-73
2022/06/06 20:08:31;;;;;;;22.57;20.13;;;;;;;19.38;87.99;100538.16;5056068;57;1139018;-72
2022/06/06 20:13:41;;;;;;;23.53;19.83;;;;;;;19.35;88.16;100546.55;5069984;57;1143107;-73
2022/06/06 20:18:50;;;;;;;50.03;34.98;;;;;;;19.12;87.49;100559.37;5284954;55;1143098;-73
2022/06/06 20:23:57;;;;;;;27.73;22.73;;;;;;;18.91;87.79;100562.64;5240477;55;1143450;-73
2022/06/06 20:29:20;;;;;;;29.05;21.57;;;;;;;18.79;88.62;100556.48;5244883;55;1143623;-73
2022/06/06 20:34:48;;;;;;;25.90;23.20;;;;;;;18.78;88.95;100565.02;5252630;55;1143126;-73
2022/06/06 20:40:10;;;;;;;26.50;23.80;;;;;;;18.78;89.62;100566.86;5228056;55;1143274;-73
2022/06/06 20:45:37;;;;;;;24.80;22.10;;;;;;;18.85;89.88;100557.11;5227799;55;1143130;-73
2022/06/06 20:50:50;;;;;;;31.87;24.40;;;;;;;18.88;89.08;100557.61;5237805;55;1143129;-73
2022/06/06 20:56:29;;;;;;;32.65;28.17;;;;;;;18.91;89.27;100550.58;5254652;55;1142397;-73
2022/06/06 21:01:35;;;;;;;29.50;26.10;;;;;;;18.95;89.46;100547.02;5288056;55;1143425;-72
2022/06/06 21:06:43;;;;;;;48.68;39.03;;;;;;;18.93;89.02;100565.15;5243402;55;1143091;-72
2022/06/06 21:11:50;;;;;;;36.45;31.23;;;;;;;18.92;89.47;100563.48;5219887;56;1141284;-73
2022/06/06 21:16:58;;;;;;;41.90;32.50;;;;;;;18.79;89.27;100557.81;5219563;56;1141330;-73
2022/06/06 21:22:04;;;;;;;41.48;32.88;;;;;;;18.61;89.51;100541.44;5241266;55;1141041;-73
2022/06/06 21:27:10;;;;;;;39.10;32.23;;;;;;;18.54;89.78;100562.33;5242805;55;1141072;-73
2022/06/06 21:32:16;;;;;;;37.90;27.25;;;;;;;18.53;89.99;100565.52;5242815;55;1141421;-73
2022/06/06 21:37:22;;;;;;;30.77;25.45;;;;;;;18.57;90.30;100560.16;5242938;55;1141235;-73
2022/06/06 21:42:28;;;;;;;26.33;23.73;;;;;;;18.45;89.47;100573.56;5231629;55;1141323;-73
2022/06/06 21:47:34;;;;;;;22.17;19.30;;;;;;;18.11;89.48;100588.45;5288777;55;1141251;-73
2022/06/06 21:52:40;;;;;;;26.70;23.50;;;;;;;17.75;94.18;100645.89;5242685;55;1141147;-72
2022/06/06 21:57:51;;;;;;;24.85;16.65;;;;;;;17.37;95.58;100648.56;5227606;55;1141126;-73
2022/06/06 22:02:56;;;;;;;22.82;16.23;;;;;;;17.30;95.89;100640.82;5219484;56;1141367;-73
2022/06/06 22:08:02;;;;;;;10.18;9.15;;;;;;;17.42;96.35;100634.19;5219299;56;1141339;-73
2022/06/06 22:13:08;;;;;;;10.98;9.80;;;;;;;17.52;95.82;100631.75;5218436;56;1138952;-73
2022/06/06 22:18:14;;;;;;;11.97;9.63;;;;;;;17.49;95.53;100637.91;5224422;56;1138964;-73
2022/06/06 22:23:19;;;;;;;11.30;10.10;;;;;;;17.44;95.33;100637.05;5251797;55;1139021;-73
2022/06/06 22:28:25;;;;;;;13.27;10.10;;;;;;;17.42;95.70;100625.67;5251738;55;1141085;-73
2022/06/06 22:33:31;;;;;;;15.97;8.97;;;;;;;17.52;96.08;100630.41;5238039;56;1141089;-73
2022/06/06 22:38:37;;;;;;;12.47;8.30;;;;;;;17.56;96.64;100640.30;5226722;55;1137064;-72
2022/06/06 22:43:43;;;;;;;10.10;8.83;;;;;;;17.51;98.25;100630.08;5247395;55;1136876;-72
2022/06/06 22:48:49;;;;;;;13.30;9.57;;;;;;;17.43;97.77;100620.66;5307075;55;1140944;-72
2022/06/06 22:53:54;;;;;;;10.04;7.90;;;;;;;17.42;98.07;100614.14;5307116;55;1140991;-72
2022/06/06 22:59:00;;;;;;;14.13;7.93;;;;;;;17.47;99.74;100589.94;5228252;55;1141222;-72
2022/06/06 23:04:06;;;;;;;9.03;7.20;;;;;;;17.51;99.29;100578.42;5218397;56;1141022;-72
2022/06/06 23:09:12;;;;;;;10.77;7.93;;;;;;;17.53;99.46;100549.19;5218723;56;1139009;-72
2022/06/06 23:14:34;;;;;;;13.43;9.40;;;;;;;17.55;99.32;100518.27;5219355;56;1141042;-72
2022/06/06 23:19:39;;;;;;;12.07;8.23;;;;;;;17.46;99.24;100484.48;5260438;55;1141000;-72
2022/06/06 23:25:06;;;;;;;12.37;7.80;;;;;;;17.40;100.00;100477.97;5307893;55;1141079;-72
2022/06/06 23:30:41;;;;;;;9.80;6.93;;;;;;;17.36;100.00;100474.44;5042131;58;1143217;-73
2022/06/06 23:35:51;;;;;;;7.47;6.20;;;;;;;17.32;100.00;100504.67;5060827;58;1141185;-72
2022/06/06 23:40:57;;;;;;;12.50;7.27;;;;;;;17.30;100.00;100497.80;5060440;58;1141533;-72
2022/06/06 23:51:37;;;;;;;10.10;5.90;;;;;;;17.27;100.00;100476.23;4868608;60;1143397;-72
2022/06/06 23:57:12;;;;;;;6.80;4.57;;;;;;;17.24;100.00;100465.91;4932369;59;1143144;-72
